sensor_id;sensor_type;location;lat;lon;timestamp;temperature;humidity
15777;DHT22;7989;51.198;6.676;2022-09-09T00:00:54;16.80;99.90
15777;DHT22;7989;51.198;6.676;2022-09-09T00:03:26;16.80;99.90
15777;DHT22;7989;51.198;6.676;2022-09-09T00:06:00;16.70;99.90
15777;DHT22;7989;51.198;6.676;2022-09-09T00:08:41;16.60;99.90
15777;DHT22;7989;51.198;6.676;2022-09-09T00:11:12;16.50;99.90
15777;DHT22;7989;51.198;6.676;2022-09-09T00:13:46;16.50;99.90
15777;DHT22;7989;51.198;6.676;2022-09-09T00:16:17;16.50;99.90
15777;DHT22;7989;51.198;6.676;2022-09-09T00:18:52;16.60;99.90
15777;DHT22;7989;51.198;6.676;2022-09-09T00:21:25;16.50;99.90
15777;DHT22;7989;51.198;6.676;2022-09-09T00:23:55;16.60;99.90
15777;DHT22;7989;51.198;6.676;2022-09-09T00:26:35;16.60;99.90
15777;DHT22;7989;51.198;6.676;2022-09-09T00:29:12;16.70;99.90
15777;DHT22;7989;51.198;6.676;2022-09-09T00:31:41;16.70;99.90
15777;DHT22;7989;51.198;6.676;2022-09-09T00:34:12;16.70;99.90
15777;DHT22;7989;51.198;6.676;2022-09-09T00:36:41;16.80;99.90
15777;DHT22;7989;51.198;6.676;2022-09-09T00:39:13;16.70;99.90
15777;DHT22;7989;51.198;6.676;2022-09-09T00:41:53;16.60;99.90
15777;DHT22;7989;51.198;6.676;2022-09-09T00:44:31;16.70;99.90
15777;DHT22;7989;51.198;6.676;2022-09-09T00:47:12;16.70;99.90
15777;DHT22;7989;51.198;6.676;2022-09-09T00:49:49;16.70;99.90
15777;DHT22;7989;51.198;6.676;2022-09-09T00:52:31;16.70;99.90
15777;DHT22;7989;51.198;6.676;2022-09-09T00:55:08;16.80;99.90
15777;DHT22;7989;51.198;6.676;2022-09-09T00:57:38;16.70;99.90
15777;DHT22;7989;51.198;6.676;2022-09-09T01:00:21;16.70;99.90
15777;DHT22;7989;51.198;6.676;2022-09-09T01:03:02;16.70;99.90
15777;DHT22;7989;51.198;6.676;2022-09-09T01:05:37;16.70;99.90
15777;DHT22;7989;51.198;6.676;2022-09-09T01:08:14;16.70;99.90
15777;DHT22;7989;51.198;6.676;2022-09-09T01:10:50;16.70;99.90
15777;DHT22;7989;51.198;6.676;2022-09-09T01:13:23;16.60;99.90
15777;DHT22;7989;51.198;6.676;2022-09-09T01:15:51;16.60;99.90
15777;DHT22;7989;51.198;6.676;2022-09-09T01:18:21;16.60;99.90
15777;DHT22;7989;51.198;6.676;2022-09-09T01:20:55;16.60;99.90
15777;DHT22;7989;51.198;6.676;2022-09-09T01:23:45;16.60;99.90
15777;DHT22;7989;51.198;6.676;2022-09-09T01:26:23;16.70;99.90
15777;DHT22;7989;51.198;6.676;2022-09-09T01:28:52;16.70;99.90
15777;DHT22;7989;51.198;6.676;2022-09-09T01:31:21;16.70;99.90
15777;DHT22;7989;51.198;6.676;2022-09-09T01:33:49;16.70;99.90
15777;DHT22;7989;51.198;6.676;2022-09-09T01:36:23;16.70;99.90
15777;DHT22;7989;51.198;6.676;2022-09-09T01:38:51;16.70;99.90
15777;DHT22;7989;51.198;6.676;2022-09-09T01:41:19;16.80;99.90
15777;DHT22;7989;51.198;6.676;2022-09-09T01:43:47;16.80;99.90
15777;DHT22;7989;51.198;6.676;2022-09-09T01:46:14;16.70;99.90
15777;DHT22;7989;51.198;6.676;2022-09-09T01:48:41;16.60;99.90
15777;DHT22;7989;51.198;6.676;2022-09-09T01:51:09;16.50;99.90
15777;DHT22;7989;51.198;6.676;2022-09-09T01:53:37;16.50;99.90
15777;DHT22;7989;51.198;6.676;2022-09-09T01:56:12;16.50;99.90
15777;DHT22;7989;51.198;6.676;2022-09-09T01:58:53;16.50;99.90
15777;DHT22;7989;51.198;6.676;2022-09-09T02:01:28;16.40;99.90
15777;DHT22;7989;51.198;6.676;2022-09-09T02:04:01;16.50;99.90
15777;DHT22;7989;51.198;6.676;2022-09-09T02:06:33;16.50;99.90
15777;DHT22;7989;51.198;6.676;2022-09-09T02:09:03;16.50;99.90
15777;DHT22;7989;51.198;6.676;2022-09-09T02:11:31;16.50;99.90
15777;DHT22;7989;51.198;6.676;2022-09-09T02:14:02;16.50;99.90
15777;DHT22;7989;51.198;6.676;2022-09-09T02:16:34;16.50;99.90
15777;DHT22;7989;51.198;6.676;2022-09-09T02:19:06;16.50;99.90
15777;DHT22;7989;51.198;6.676;2022-09-09T02:21:35;16.50;99.90
15777;DHT22;7989;51.198;6.676;2022-09-09T02:24:05;16.50;99.90
15777;DHT22;7989;51.198;6.676;2022-09-09T02:26:36;16.50;99.90
15777;DHT22;7989;51.198;6.676;2022-09-09T02:29:11;16.50;99.90
15777;DHT22;7989;51.198;6.676;2022-09-09T02:31:39;16.60;99.90
15777;DHT22;7989;51.198;6.676;2022-09-09T02:34:09;16.60;99.90
15777;DHT22;7989;51.198;6.676;2022-09-09T02:36:37;16.60;99.90
15777;DHT22;7989;51.198;6.676;2022-09-09T02:39:08;16.60;99.90
15777;DHT22;7989;51.198;6.676;2022-09-09T02:41:38;16.60;99.90
15777;DHT22;7989;51.198;6.676;2022-09-09T02:44:10;16.60;99.90
15777;DHT22;7989;51.198;6.676;2022-09-09T02:46:51;16.60;99.90
15777;DHT22;7989;51.198;6.676;2022-09-09T02:49:30;16.60;99.90
15777;DHT22;7989;51.198;6.676;2022-09-09T02:52:02;16.50;99.90
15777;DHT22;7989;51.198;6.676;2022-09-09T02:54:32;16.50;99.90
15777;DHT22;7989;51.198;6.676;2022-09-09T02:57:03;16.50;99.90
15777;DHT22;7989;51.198;6.676;2022-09-09T02:59:33;16.50;99.90
15777;DHT22;7989;51.198;6.676;2022-09-09T03:02:00;16.50;99.90
15777;DHT22;7989;51.198;6.676;2022-09-09T03:04:28;16.50;99.90
15777;DHT22;7989;51.198;6.676;2022-09-09T03:06:55;16.50;99.90
15777;DHT22;7989;51.198;6.676;2022-09-09T03:09:22;16.50;99.90
15777;DHT22;7989;51.198;6.676;2022-09-09T03:11:49;16.60;99.90
15777;DHT22;7989;51.198;6.676;2022-09-09T03:14:16;16.50;99.90
15777;DHT22;7989;51.198;6.676;2022-09-09T03:16:47;16.50;99.90
15777;DHT22;7989;51.198;6.676;2022-09-09T03:19:15;16.50;99.90
15777;DHT22;7989;51.198;6.676;2022-09-09T03:21:43;16.50;99.90
15777;DHT22;7989;51.198;6.676;2022-09-09T03:24:11;16.50;99.90
15777;DHT22;7989;51.198;6.676;2022-09-09T03:26:38;16.50;99.90
15777;DHT22;7989;51.198;6.676;2022-09-09T03:29:05;16.50;99.90
15777;DHT22;7989;51.198;6.676;2022-09-09T03:31:32;16.50;99.90
15777;DHT22;7989;51.198;6.676;2022-09-09T03:34:00;16.50;99.90
15777;DHT22;7989;51.198;6.676;2022-09-09T03:36:28;16.50;99.90
15777;DHT22;7989;51.198;6.676;2022-09-09T03:38:55;16.50;99.90
15777;DHT22;7989;51.198;6.676;2022-09-09T03:41:22;16.50;99.90
15777;DHT22;7989;51.198;6.676;2022-09-09T03:43:49;16.50;99.90
15777;DHT22;7989;51.198;6.676;2022-09-09T03:46:16;16.40;99.90
15777;DHT22;7989;51.198;6.676;2022-09-09T03:48:43;16.30;99.90
15777;DHT22;7989;51.198;6.676;2022-09-09T03:51:12;16.40;99.90
15777;DHT22;7989;51.198;6.676;2022-09-09T03:53:39;16.40;99.90
15777;DHT22;7989;51.198;6.676;2022-09-09T03:56:06;16.30;99.90
15777;DHT22;7989;51.198;6.676;2022-09-09T03:58:34;16.30;99.90
15777;DHT22;7989;51.198;6.676;2022-09-09T04:01:02;16.30;99.90
15777;DHT22;7989;51.198;6.676;2022-09-09T04:03:30;16.30;99.90
15777;DHT22;7989;51.198;6.676;2022-09-09T04:05:59;16.30;99.90
15777;DHT22;7989;51.198;6.676;2022-09-09T04:08:29;16.30;99.90
15777;DHT22;7989;51.198;6.676;2022-09-09T04:10:57;16.30;99.90
15777;DHT22;7989;51.198;6.676;2022-09-09T04:13:24;16.30;99.90
15777;DHT22;7989;51.198;6.676;2022-09-09T04:15:52;16.30;99.90
15777;DHT22;7989;51.198;6.676;2022-09-09T04:18:20;16.20;99.90
15777;DHT22;7989;51.198;6.676;2022-09-09T04:20:47;16.30;99.90
15777;DHT22;7989;51.198;6.676;2022-09-09T04:23:14;16.30;99.90
15777;DHT22;7989;51.198;6.676;2022-09-09T04:25:45;16.30;99.90
15777;DHT22;7989;51.198;6.676;2022-09-09T04:28:13;16.30;99.90
15777;DHT22;7989;51.198;6.676;2022-09-09T04:30:40;16.30;99.90
15777;DHT22;7989;51.198;6.676;2022-09-09T04:33:07;16.30;99.90
15777;DHT22;7989;51.198;6.676;2022-09-09T04:35:35;16.30;99.90
15777;DHT22;7989;51.198;6.676;2022-09-09T04:38:02;16.20;99.90
15777;DHT22;7989;51.198;6.676;2022-09-09T04:40:29;16.30;99.90
15777;DHT22;7989;51.198;6.676;2022-09-09T04:42:59;16.30;99.90
15777;DHT22;7989;51.198;6.676;2022-09-09T04:45:25;16.30;99.90
15777;DHT22;7989;51.198;6.676;2022-09-09T04:47:53;16.30;99.90
15777;DHT22;7989;51.198;6.676;2022-09-09T04:50:20;16.30;99.90
15777;DHT22;7989;51.198;6.676;2022-09-09T04:52:47;16.40;99.90
15777;DHT22;7989;51.198;6.676;2022-09-09T04:55:14;16.40;99.90
15777;DHT22;7989;51.198;6.676;2022-09-09T04:57:41;16.40;99.90
15777;DHT22;7989;51.198;6.676;2022-09-09T05:00:10;16.50;99.90
15777;DHT22;7989;51.198;6.676;2022-09-09T05:02:38;16.40;99.90
15777;DHT22;7989;51.198;6.676;2022-09-09T05:05:05;16.50;99.90
15777;DHT22;7989;51.198;6.676;2022-09-09T05:07:32;16.50;99.90
15777;DHT22;7989;51.198;6.676;2022-09-09T05:09:59;16.40;99.90
15777;DHT22;7989;51.198;6.676;2022-09-09T05:12:26;16.50;99.90
15777;DHT22;7989;51.198;6.676;2022-09-09T05:14:53;16.50;99.90
15777;DHT22;7989;51.198;6.676;2022-09-09T05:17:21;16.50;99.90
15777;DHT22;7989;51.198;6.676;2022-09-09T05:19:48;16.50;99.90
15777;DHT22;7989;51.198;6.676;2022-09-09T05:22:18;16.60;99.90
15777;DHT22;7989;51.198;6.676;2022-09-09T05:24:46;16.60;99.90
15777;DHT22;7989;51.198;6.676;2022-09-09T05:27:16;16.50;99.90
15777;DHT22;7989;51.198;6.676;2022-09-09T05:29:43;16.60;99.90
15777;DHT22;7989;51.198;6.676;2022-09-09T05:32:10;16.60;99.90
15777;DHT22;7989;51.198;6.676;2022-09-09T05:34:38;16.60;99.90
15777;DHT22;7989;51.198;6.676;2022-09-09T05:37:05;16.60;99.90
15777;DHT22;7989;51.198;6.676;2022-09-09T05:39:33;16.70;99.90
15777;DHT22;7989;51.198;6.676;2022-09-09T05:42:01;16.70;99.90
15777;DHT22;7989;51.198;6.676;2022-09-09T05:44:30;16.70;99.90
15777;DHT22;7989;51.198;6.676;2022-09-09T05:46:57;16.80;99.90
15777;DHT22;7989;51.198;6.676;2022-09-09T05:49:24;16.80;99.90
15777;DHT22;7989;51.198;6.676;2022-09-09T05:51:52;16.80;99.90
15777;DHT22;7989;51.198;6.676;2022-09-09T05:54:19;16.90;99.90
15777;DHT22;7989;51.198;6.676;2022-09-09T05:56:46;16.90;99.90
15777;DHT22;7989;51.198;6.676;2022-09-09T05:59:15;16.90;99.90
15777;DHT22;7989;51.198;6.676;2022-09-09T06:01:42;16.90;99.90
15777;DHT22;7989;51.198;6.676;2022-09-09T06:04:08;17.00;99.90
15777;DHT22;7989;51.198;6.676;2022-09-09T06:06:38;17.00;99.90
15777;DHT22;7989;51.198;6.676;2022-09-09T06:09:07;17.00;99.90
15777;DHT22;7989;51.198;6.676;2022-09-09T06:11:36;17.00;99.90
15777;DHT22;7989;51.198;6.676;2022-09-09T06:14:04;17.10;99.90
15777;DHT22;7989;51.198;6.676;2022-09-09T06:16:31;17.10;99.90
15777;DHT22;7989;51.198;6.676;2022-09-09T06:18:59;17.10;99.90
15777;DHT22;7989;51.198;6.676;2022-09-09T06:21:27;17.20;99.90
15777;DHT22;7989;51.198;6.676;2022-09-09T06:23:56;17.30;99.90
15777;DHT22;7989;51.198;6.676;2022-09-09T06:26:26;17.40;99.90
15777;DHT22;7989;51.198;6.676;2022-09-09T06:28:54;17.60;99.90
15777;DHT22;7989;51.198;6.676;2022-09-09T06:31:24;17.80;99.90
15777;DHT22;7989;51.198;6.676;2022-09-09T06:33:52;17.90;99.90
15777;DHT22;7989;51.198;6.676;2022-09-09T06:36:22;18.20;99.90
15777;DHT22;7989;51.198;6.676;2022-09-09T06:38:49;18.80;99.90
15777;DHT22;7989;51.198;6.676;2022-09-09T06:41:17;19.10;99.90
15777;DHT22;7989;51.198;6.676;2022-09-09T06:43:46;21.30;99.90
15777;DHT22;7989;51.198;6.676;2022-09-09T06:46:14;23.60;99.90
15777;DHT22;7989;51.198;6.676;2022-09-09T06:48:42;23.20;99.90
15777;DHT22;7989;51.198;6.676;2022-09-09T06:51:12;25.20;99.90
15777;DHT22;7989;51.198;6.676;2022-09-09T06:53:40;27.10;99.90
15777;DHT22;7989;51.198;6.676;2022-09-09T06:56:18;27.80;99.90
15777;DHT22;7989;51.198;6.676;2022-09-09T06:58:47;26.80;99.90
15777;DHT22;7989;51.198;6.676;2022-09-09T07:01:15;27.00;99.90
15777;DHT22;7989;51.198;6.676;2022-09-09T07:03:46;28.10;99.90
15777;DHT22;7989;51.198;6.676;2022-09-09T07:06:17;28.80;99.90
15777;DHT22;7989;51.198;6.676;2022-09-09T07:08:48;24.50;99.90
15777;DHT22;7989;51.198;6.676;2022-09-09T07:11:16;24.40;99.90
15777;DHT22;7989;51.198;6.676;2022-09-09T07:13:42;25.00;99.90
15777;DHT22;7989;51.198;6.676;2022-09-09T07:16:12;22.80;99.90
15777;DHT22;7989;51.198;6.676;2022-09-09T07:18:40;21.60;99.90
15777;DHT22;7989;51.198;6.676;2022-09-09T07:21:08;22.00;99.90
15777;DHT22;7989;51.198;6.676;2022-09-09T07:23:35;21.60;99.90
15777;DHT22;7989;51.198;6.676;2022-09-09T07:26:06;21.20;99.90
15777;DHT22;7989;51.198;6.676;2022-09-09T07:28:34;20.80;99.90
15777;DHT22;7989;51.198;6.676;2022-09-09T07:31:01;20.90;99.90
15777;DHT22;7989;51.198;6.676;2022-09-09T07:33:31;21.00;99.90
15777;DHT22;7989;51.198;6.676;2022-09-09T07:36:04;21.30;99.90
15777;DHT22;7989;51.198;6.676;2022-09-09T07:38:31;21.80;99.90
15777;DHT22;7989;51.198;6.676;2022-09-09T07:41:03;21.00;99.90
15777;DHT22;7989;51.198;6.676;2022-09-09T07:43:31;20.40;99.90
15777;DHT22;7989;51.198;6.676;2022-09-09T07:45:59;20.60;99.90
15777;DHT22;7989;51.198;6.676;2022-09-09T07:48:26;20.90;99.90
15777;DHT22;7989;51.198;6.676;2022-09-09T07:51:04;20.90;99.90
15777;DHT22;7989;51.198;6.676;2022-09-09T07:53:32;20.50;99.90
15777;DHT22;7989;51.198;6.676;2022-09-09T07:56:03;20.20;99.90
15777;DHT22;7989;51.198;6.676;2022-09-09T07:58:30;20.10;99.90
15777;DHT22;7989;51.198;6.676;2022-09-09T08:00:56;19.90;99.90
15777;DHT22;7989;51.198;6.676;2022-09-09T08:03:24;20.10;99.90
15777;DHT22;7989;51.198;6.676;2022-09-09T08:05:50;20.10;99.90
15777;DHT22;7989;51.198;6.676;2022-09-09T08:08:18;20.10;99.90
15777;DHT22;7989;51.198;6.676;2022-09-09T08:10:45;20.20;99.90
15777;DHT22;7989;51.198;6.676;2022-09-09T08:13:12;20.30;99.90
15777;DHT22;7989;51.198;6.676;2022-09-09T08:15:39;20.40;99.90
15777;DHT22;7989;51.198;6.676;2022-09-09T08:18:07;20.50;99.90
15777;DHT22;7989;51.198;6.676;2022-09-09T08:20:36;20.50;99.90
15777;DHT22;7989;51.198;6.676;2022-09-09T08:23:03;20.40;99.90
15777;DHT22;7989;51.198;6.676;2022-09-09T08:25:31;20.40;99.90
15777;DHT22;7989;51.198;6.676;2022-09-09T08:28:00;20.30;99.90
15777;DHT22;7989;51.198;6.676;2022-09-09T08:30:28;20.60;99.90
15777;DHT22;7989;51.198;6.676;2022-09-09T08:32:55;20.90;99.90
15777;DHT22;7989;51.198;6.676;2022-09-09T08:35:22;20.90;99.90
15777;DHT22;7989;51.198;6.676;2022-09-09T08:37:53;20.80;99.90
15777;DHT22;7989;51.198;6.676;2022-09-09T08:40:25;21.00;99.90
15777;DHT22;7989;51.198;6.676;2022-09-09T08:42:59;21.30;99.90
15777;DHT22;7989;51.198;6.676;2022-09-09T08:45:33;21.30;99.90
15777;DHT22;7989;51.198;6.676;2022-09-09T08:48:11;21.40;99.90
15777;DHT22;7989;51.198;6.676;2022-09-09T08:50:42;21.20;99.90
15777;DHT22;7989;51.198;6.676;2022-09-09T08:53:16;21.10;99.90
15777;DHT22;7989;51.198;6.676;2022-09-09T08:55:47;20.90;99.90
15777;DHT22;7989;51.198;6.676;2022-09-09T08:58:17;20.80;99.90
15777;DHT22;7989;51.198;6.676;2022-09-09T09:00:54;20.70;99.90
15777;DHT22;7989;51.198;6.676;2022-09-09T09:03:30;20.50;99.90
15777;DHT22;7989;51.198;6.676;2022-09-09T09:06:06;20.20;99.90
15777;DHT22;7989;51.198;6.676;2022-09-09T09:08:43;20.10;99.90
15777;DHT22;7989;51.198;6.676;2022-09-09T09:11:10;20.00;99.90
15777;DHT22;7989;51.198;6.676;2022-09-09T09:13:43;20.00;99.90
15777;DHT22;7989;51.198;6.676;2022-09-09T09:16:19;19.90;99.90
15777;DHT22;7989;51.198;6.676;2022-09-09T09:18:49;19.90;99.90
15777;DHT22;7989;51.198;6.676;2022-09-09T09:21:21;19.80;99.90
15777;DHT22;7989;51.198;6.676;2022-09-09T09:23:56;19.80;99.90
15777;DHT22;7989;51.198;6.676;2022-09-09T09:26:27;19.80;99.90
15777;DHT22;7989;51.198;6.676;2022-09-09T09:28:58;20.00;99.90
15777;DHT22;7989;51.198;6.676;2022-09-09T09:31:25;20.20;99.90
15777;DHT22;7989;51.198;6.676;2022-09-09T09:33:55;20.50;99.90
15777;DHT22;7989;51.198;6.676;2022-09-09T09:36:25;21.10;99.90
15777;DHT22;7989;51.198;6.676;2022-09-09T09:39:00;22.10;99.90
15777;DHT22;7989;51.198;6.676;2022-09-09T09:41:32;23.80;99.90
15777;DHT22;7989;51.198;6.676;2022-09-09T09:44:02;23.10;99.90
15777;DHT22;7989;51.198;6.676;2022-09-09T09:46:30;22.40;99.90
15777;DHT22;7989;51.198;6.676;2022-09-09T09:48:57;22.10;99.90
15777;DHT22;7989;51.198;6.676;2022-09-09T09:51:25;21.90;99.90
15777;DHT22;7989;51.198;6.676;2022-09-09T09:53:52;21.70;99.90
15777;DHT22;7989;51.198;6.676;2022-09-09T09:56:27;21.80;99.90
15777;DHT22;7989;51.198;6.676;2022-09-09T09:58:55;22.20;99.90
15777;DHT22;7989;51.198;6.676;2022-09-09T10:01:24;21.90;99.90
15777;DHT22;7989;51.198;6.676;2022-09-09T10:03:54;21.90;99.90
15777;DHT22;7989;51.198;6.676;2022-09-09T10:06:30;22.00;99.90
15777;DHT22;7989;51.198;6.676;2022-09-09T10:08:57;21.80;99.90
15777;DHT22;7989;51.198;6.676;2022-09-09T10:11:39;21.90;99.90
15777;DHT22;7989;51.198;6.676;2022-09-09T10:14:17;22.00;99.90
15777;DHT22;7989;51.198;6.676;2022-09-09T10:17:06;21.80;99.90
15777;DHT22;7989;51.198;6.676;2022-09-09T10:19:37;22.00;99.90
15777;DHT22;7989;51.198;6.676;2022-09-09T10:22:25;22.00;99.90
15777;DHT22;7989;51.198;6.676;2022-09-09T10:25:15;21.70;99.90
15777;DHT22;7989;51.198;6.676;2022-09-09T10:27:55;21.40;99.90
15777;DHT22;7989;51.198;6.676;2022-09-09T10:30:36;21.10;99.90
15777;DHT22;7989;51.198;6.676;2022-09-09T10:33:10;21.00;99.90
15777;DHT22;7989;51.198;6.676;2022-09-09T10:35:44;21.20;99.90
15777;DHT22;7989;51.198;6.676;2022-09-09T10:38:16;21.70;99.90
15777;DHT22;7989;51.198;6.676;2022-09-09T10:40:47;21.80;99.90
15777;DHT22;7989;51.198;6.676;2022-09-09T10:43:32;21.80;99.90
15777;DHT22;7989;51.198;6.676;2022-09-09T10:46:09;21.70;99.90
15777;DHT22;7989;51.198;6.676;2022-09-09T10:48:58;21.60;99.90
15777;DHT22;7989;51.198;6.676;2022-09-09T10:51:36;21.40;99.90
15777;DHT22;7989;51.198;6.676;2022-09-09T10:54:30;21.30;99.90
15777;DHT22;7989;51.198;6.676;2022-09-09T10:57:03;21.20;99.90
15777;DHT22;7989;51.198;6.676;2022-09-09T10:59:35;21.20;99.90
15777;DHT22;7989;51.198;6.676;2022-09-09T11:02:12;21.60;99.90
15777;DHT22;7989;51.198;6.676;2022-09-09T11:04:47;21.60;99.90
15777;DHT22;7989;51.198;6.676;2022-09-09T11:07:21;21.40;99.90
15777;DHT22;7989;51.198;6.676;2022-09-09T11:09:54;21.30;99.90
15777;DHT22;7989;51.198;6.676;2022-09-09T11:12:23;21.20;99.90
15777;DHT22;7989;51.198;6.676;2022-09-09T11:14:55;21.10;99.90
15777;DHT22;7989;51.198;6.676;2022-09-09T11:17:26;21.00;99.90
15777;DHT22;7989;51.198;6.676;2022-09-09T11:19:58;21.00;99.90
15777;DHT22;7989;51.198;6.676;2022-09-09T11:22:29;21.00;99.90
15777;DHT22;7989;51.198;6.676;2022-09-09T11:24:59;20.80;99.90
15777;DHT22;7989;51.198;6.676;2022-09-09T11:27:34;20.90;99.90
15777;DHT22;7989;51.198;6.676;2022-09-09T11:30:16;21.10;99.90
15777;DHT22;7989;51.198;6.676;2022-09-09T11:33:07;21.60;99.90
15777;DHT22;7989;51.198;6.676;2022-09-09T11:35:47;21.80;99.90
15777;DHT22;7989;51.198;6.676;2022-09-09T11:38:19;22.10;99.90
15777;DHT22;7989;51.198;6.676;2022-09-09T11:40:55;22.00;99.90
15777;DHT22;7989;51.198;6.676;2022-09-09T11:43:25;21.70;99.90
15777;DHT22;7989;51.198;6.676;2022-09-09T11:45:55;21.50;99.90
15777;DHT22;7989;51.198;6.676;2022-09-09T11:48:28;21.40;99.90
15777;DHT22;7989;51.198;6.676;2022-09-09T11:51:03;21.40;99.90
15777;DHT22;7989;51.198;6.676;2022-09-09T11:53:30;21.50;99.90
15777;DHT22;7989;51.198;6.676;2022-09-09T11:56:23;21.70;99.90
15777;DHT22;7989;51.198;6.676;2022-09-09T11:58:55;21.70;99.90
15777;DHT22;7989;51.198;6.676;2022-09-09T12:01:28;21.60;99.90
15777;DHT22;7989;51.198;6.676;2022-09-09T12:06:51;22.20;99.90
15777;DHT22;7989;51.198;6.676;2022-09-09T12:09:24;22.80;99.90
15777;DHT22;7989;51.198;6.676;2022-09-09T12:11:52;22.70;99.90
15777;DHT22;7989;51.198;6.676;2022-09-09T12:14:21;23.10;99.90
15777;DHT22;7989;51.198;6.676;2022-09-09T12:16:49;23.50;99.90
15777;DHT22;7989;51.198;6.676;2022-09-09T12:19:19;23.70;99.90
15777;DHT22;7989;51.198;6.676;2022-09-09T12:21:54;23.60;99.90
15777;DHT22;7989;51.198;6.676;2022-09-09T12:24:30;23.20;99.90
15777;DHT22;7989;51.198;6.676;2022-09-09T12:27:03;22.70;99.90
15777;DHT22;7989;51.198;6.676;2022-09-09T12:29:50;22.30;99.90
15777;DHT22;7989;51.198;6.676;2022-09-09T12:32:22;21.90;99.90
15777;DHT22;7989;51.198;6.676;2022-09-09T12:34:53;21.90;99.90
15777;DHT22;7989;51.198;6.676;2022-09-09T12:37:27;21.90;99.90
15777;DHT22;7989;51.198;6.676;2022-09-09T12:39:57;21.70;99.90
15777;DHT22;7989;51.198;6.676;2022-09-09T12:42:26;21.70;99.90
15777;DHT22;7989;51.198;6.676;2022-09-09T12:44:57;21.70;99.90
15777;DHT22;7989;51.198;6.676;2022-09-09T12:47:29;21.60;99.90
15777;DHT22;7989;51.198;6.676;2022-09-09T12:49:57;21.60;99.90
15777;DHT22;7989;51.198;6.676;2022-09-09T12:52:29;21.90;99.90
15777;DHT22;7989;51.198;6.676;2022-09-09T12:54:59;21.80;99.90
15777;DHT22;7989;51.198;6.676;2022-09-09T12:57:33;21.80;99.90
15777;DHT22;7989;51.198;6.676;2022-09-09T13:00:14;21.80;99.90
15777;DHT22;7989;51.198;6.676;2022-09-09T13:02:50;21.80;99.90
15777;DHT22;7989;51.198;6.676;2022-09-09T13:05:21;22.30;99.90
15777;DHT22;7989;51.198;6.676;2022-09-09T13:07:49;22.60;99.90
15777;DHT22;7989;51.198;6.676;2022-09-09T13:10:23;22.90;99.90
15777;DHT22;7989;51.198;6.676;2022-09-09T13:12:52;23.10;99.90
15777;DHT22;7989;51.198;6.676;2022-09-09T13:15:22;23.20;99.90
15777;DHT22;7989;51.198;6.676;2022-09-09T13:17:52;23.00;99.90
15777;DHT22;7989;51.198;6.676;2022-09-09T13:20:21;23.00;99.90
15777;DHT22;7989;51.198;6.676;2022-09-09T13:22:51;23.10;99.90
15777;DHT22;7989;51.198;6.676;2022-09-09T13:25:22;23.30;99.90
15777;DHT22;7989;51.198;6.676;2022-09-09T13:27:54;23.40;99.90
15777;DHT22;7989;51.198;6.676;2022-09-09T13:30:23;23.00;99.90
15777;DHT22;7989;51.198;6.676;2022-09-09T13:33:19;22.80;99.90
15777;DHT22;7989;51.198;6.676;2022-09-09T13:35:50;22.90;99.90
15777;DHT22;7989;51.198;6.676;2022-09-09T13:38:20;23.40;99.90
15777;DHT22;7989;51.198;6.676;2022-09-09T13:40:55;23.30;99.90
15777;DHT22;7989;51.198;6.676;2022-09-09T13:43:24;22.80;99.90
15777;DHT22;7989;51.198;6.676;2022-09-09T13:45:57;22.20;99.90
15777;DHT22;7989;51.198;6.676;2022-09-09T13:48:24;21.70;99.90
15777;DHT22;7989;51.198;6.676;2022-09-09T13:51:01;21.50;99.90
15777;DHT22;7989;51.198;6.676;2022-09-09T13:53:29;21.30;99.90
15777;DHT22;7989;51.198;6.676;2022-09-09T13:55:57;21.30;99.90
15777;DHT22;7989;51.198;6.676;2022-09-09T13:58:24;21.50;99.90
15777;DHT22;7989;51.198;6.676;2022-09-09T14:00:52;22.00;99.90
15777;DHT22;7989;51.198;6.676;2022-09-09T14:03:20;22.70;99.90
15777;DHT22;7989;51.198;6.676;2022-09-09T14:05:47;23.20;99.90
15777;DHT22;7989;51.198;6.676;2022-09-09T14:08:23;23.40;99.90
15777;DHT22;7989;51.198;6.676;2022-09-09T14:10:53;23.70;99.90
15777;DHT22;7989;51.198;6.676;2022-09-09T14:13:21;23.60;99.90
15777;DHT22;7989;51.198;6.676;2022-09-09T14:15:48;23.70;99.90
15777;DHT22;7989;51.198;6.676;2022-09-09T14:18:16;23.70;99.90
15777;DHT22;7989;51.198;6.676;2022-09-09T14:20:44;23.20;99.90
15777;DHT22;7989;51.198;6.676;2022-09-09T14:23:11;22.80;99.90
15777;DHT22;7989;51.198;6.676;2022-09-09T14:25:40;22.40;99.90
15777;DHT22;7989;51.198;6.676;2022-09-09T14:28:10;21.80;99.90
15777;DHT22;7989;51.198;6.676;2022-09-09T14:30:38;21.40;99.90
15777;DHT22;7989;51.198;6.676;2022-09-09T14:33:06;21.00;99.90
15777;DHT22;7989;51.198;6.676;2022-09-09T14:35:34;20.80;99.90
15777;DHT22;7989;51.198;6.676;2022-09-09T14:38:01;20.50;99.90
15777;DHT22;7989;51.198;6.676;2022-09-09T14:40:29;20.30;99.90
15777;DHT22;7989;51.198;6.676;2022-09-09T14:42:55;20.30;99.90
15777;DHT22;7989;51.198;6.676;2022-09-09T14:45:25;20.00;99.90
15777;DHT22;7989;51.198;6.676;2022-09-09T14:47:52;19.80;99.90
15777;DHT22;7989;51.198;6.676;2022-09-09T14:50:19;19.70;99.90
15777;DHT22;7989;51.198;6.676;2022-09-09T14:52:46;19.40;99.90
15777;DHT22;7989;51.198;6.676;2022-09-09T14:55:13;19.30;99.90
15777;DHT22;7989;51.198;6.676;2022-09-09T14:57:41;19.20;99.90
15777;DHT22;7989;51.198;6.676;2022-09-09T15:00:09;19.00;99.90
15777;DHT22;7989;51.198;6.676;2022-09-09T15:02:38;19.00;99.90
15777;DHT22;7989;51.198;6.676;2022-09-09T15:05:05;19.00;99.90
15777;DHT22;7989;51.198;6.676;2022-09-09T15:07:32;18.90;99.90
15777;DHT22;7989;51.198;6.676;2022-09-09T15:09:59;18.90;99.90
15777;DHT22;7989;51.198;6.676;2022-09-09T15:12:26;18.80;99.90
15777;DHT22;7989;51.198;6.676;2022-09-09T15:14:53;19.00;99.90
15777;DHT22;7989;51.198;6.676;2022-09-09T15:17:21;19.10;99.90
15777;DHT22;7989;51.198;6.676;2022-09-09T15:19:51;19.20;99.90
15777;DHT22;7989;51.198;6.676;2022-09-09T15:22:18;19.40;99.90
15777;DHT22;7989;51.198;6.676;2022-09-09T15:24:44;19.50;99.90
15777;DHT22;7989;51.198;6.676;2022-09-09T15:27:12;19.50;99.90
15777;DHT22;7989;51.198;6.676;2022-09-09T15:29:40;19.50;99.90
15777;DHT22;7989;51.198;6.676;2022-09-09T15:32:07;19.50;99.90
15777;DHT22;7989;51.198;6.676;2022-09-09T15:34:34;19.50;99.90
15777;DHT22;7989;51.198;6.676;2022-09-09T15:37:02;19.60;99.90
15777;DHT22;7989;51.198;6.676;2022-09-09T15:39:29;19.50;99.90
15777;DHT22;7989;51.198;6.676;2022-09-09T15:41:55;19.40;99.90
15777;DHT22;7989;51.198;6.676;2022-09-09T15:44:23;19.30;99.90
15777;DHT22;7989;51.198;6.676;2022-09-09T15:46:52;19.20;99.90
15777;DHT22;7989;51.198;6.676;2022-09-09T15:49:21;19.20;99.90
15777;DHT22;7989;51.198;6.676;2022-09-09T15:51:51;19.20;99.90
15777;DHT22;7989;51.198;6.676;2022-09-09T15:54:21;18.80;99.90
15777;DHT22;7989;51.198;6.676;2022-09-09T15:56:51;18.50;99.90
15777;DHT22;7989;51.198;6.676;2022-09-09T15:59:20;18.20;99.90
15777;DHT22;7989;51.198;6.676;2022-09-09T16:01:47;18.10;99.90
15777;DHT22;7989;51.198;6.676;2022-09-09T16:04:16;18.10;99.90
15777;DHT22;7989;51.198;6.676;2022-09-09T16:06:49;18.10;99.90
15777;DHT22;7989;51.198;6.676;2022-09-09T16:09:16;18.20;99.90